createdAt,value
2018-06-20T00:00:30.818Z,85.70
2018-06-20T00:02:59.187Z,85.70
2018-06-20T00:05:27.530Z,85.80
2018-06-20T00:07:55.896Z,85.90
2018-06-20T00:10:24.235Z,86.10
2018-06-20T00:12:52.641Z,86.10
2018-06-20T00:15:21.004Z,86.20
2018-06-20T00:17:49.376Z,86.20
2018-06-20T00:20:17.722Z,86.20
2018-06-20T00:25:14.156Z,86.20
2018-06-20T00:27:42.531Z,86.30
2018-06-20T00:30:10.886Z,86.30
2018-06-20T00:32:39.245Z,86.30
2018-06-20T00:35:07.625Z,86.20
2018-06-20T00:37:35.977Z,86.30
2018-06-20T00:42:32.458Z,86.30
2018-06-20T00:45:00.822Z,86.10
2018-06-20T00:47:29.167Z,86.90
2018-06-20T00:49:57.792Z,86.30
2018-06-20T00:52:26.135Z,87.10
2018-06-20T00:54:54.550Z,86.30
2018-06-20T00:57:22.887Z,86.20
2018-06-20T00:59:51.244Z,86.10
2018-06-20T01:02:19.654Z,86.10
2018-06-20T01:04:48.227Z,86.20
2018-06-20T01:07:16.628Z,85.80
2018-06-20T01:12:13.088Z,86.40
2018-06-20T01:14:41.452Z,86.40
2018-06-20T01:17:10.606Z,86.60
2018-06-20T01:22:07.116Z,86.80
2018-06-20T01:27:03.567Z,86.90
2018-06-20T01:29:31.951Z,86.70
2018-06-20T01:36:56.923Z,86.60
2018-06-20T01:39:25.284Z,86.50
2018-06-20T01:41:53.620Z,86.60
2018-06-20T01:44:21.993Z,86.60
2018-06-20T01:46:50.339Z,86.70
2018-06-20T01:49:18.736Z,86.90
2018-06-20T01:51:47.541Z,86.80
2018-06-20T01:54:15.908Z,86.90
2018-06-20T01:56:44.264Z,86.90
2018-06-20T01:59:12.644Z,87.00
2018-06-20T02:01:40.995Z,87.10
2018-06-20T02:04:09.379Z,87.10
2018-06-20T02:06:37.707Z,87.20
2018-06-20T02:09:07.163Z,87.40
2018-06-20T02:11:35.548Z,87.60
2018-06-20T02:14:03.915Z,87.60
2018-06-20T02:16:32.255Z,87.60
2018-06-20T02:21:28.716Z,87.10
2018-06-20T02:23:57.117Z,87.50
2018-06-20T02:26:25.459Z,87.70
2018-06-20T02:28:53.813Z,87.90
2018-06-20T02:31:22.180Z,88.10
2018-06-20T02:33:50.517Z,88.20
2018-06-20T02:36:24.276Z,88.20
2018-06-20T02:38:52.607Z,88.30
2018-06-20T02:41:20.987Z,88.30
2018-06-20T02:46:17.432Z,88.50
2018-06-20T02:48:46.053Z,88.70
2018-06-20T02:51:14.428Z,88.50
2018-06-20T02:53:42.764Z,88.80
2018-06-20T02:56:11.199Z,88.90
2018-06-20T02:58:39.560Z,89.00
2018-06-20T03:01:08.160Z,89.10
2018-06-20T03:03:36.545Z,89.10
2018-06-20T03:06:04.964Z,89.20
2018-06-20T03:08:33.318Z,89.30
2018-06-20T03:11:01.725Z,89.30
2018-06-20T03:13:30.092Z,89.30
2018-06-20T03:15:58.509Z,89.30
2018-06-20T03:20:54.952Z,89.40
2018-06-20T03:23:23.290Z,89.50
2018-06-20T03:25:51.651Z,89.40
2018-06-20T03:28:19.989Z,89.40
2018-06-20T03:30:48.357Z,89.40
2018-06-20T03:33:16.700Z,89.50
2018-06-20T03:35:45.056Z,89.40
2018-06-20T03:38:13.396Z,89.30
2018-06-20T03:40:41.760Z,89.20
2018-06-20T03:43:10.090Z,89.20
2018-06-20T03:45:38.446Z,89.10
2018-06-20T03:48:06.768Z,89.20
2018-06-20T03:50:35.133Z,89.40
2018-06-20T03:53:03.464Z,89.40
2018-06-20T03:55:32.100Z,89.40
2018-06-20T03:58:00.436Z,89.30
2018-06-20T04:00:28.804Z,89.30
2018-06-20T04:02:57.166Z,89.30
2018-06-20T04:05:28.071Z,89.20
2018-06-20T04:07:56.399Z,89.20
2018-06-20T04:10:24.771Z,89.20
2018-06-20T04:12:53.144Z,89.30
2018-06-20T04:15:21.509Z,89.30
2018-06-20T04:17:49.847Z,89.30
2018-06-20T04:20:18.208Z,89.30
2018-06-20T04:22:46.548Z,89.40
2018-06-20T04:25:14.884Z,89.30
2018-06-20T04:27:43.247Z,89.30
2018-06-20T04:30:11.575Z,89.30
2018-06-20T04:32:39.952Z,89.00
2018-06-20T04:35:08.483Z,88.90
2018-06-20T04:37:36.848Z,88.70
2018-06-20T04:40:05.183Z,88.60
2018-06-20T04:42:33.888Z,88.70
2018-06-20T04:45:02.528Z,88.70
2018-06-20T04:47:30.895Z,88.50
2018-06-20T04:49:59.236Z,88.70
2018-06-20T04:52:27.595Z,88.30
2018-06-20T04:54:55.927Z,88.20
2018-06-20T04:57:24.307Z,88.20
2018-06-20T04:59:52.645Z,88.10
2018-06-20T05:02:21.080Z,88.00
2018-06-20T05:04:49.412Z,87.80
2018-06-20T05:07:17.781Z,87.80
2018-06-20T05:09:46.112Z,87.60
2018-06-20T05:12:14.509Z,87.50
2018-06-20T05:14:42.839Z,87.50
2018-06-20T05:17:11.208Z,87.60
2018-06-20T05:19:39.543Z,87.30
2018-06-20T05:24:35.976Z,87.00
2018-06-20T05:27:04.400Z,86.70
2018-06-20T05:29:32.752Z,86.70
2018-06-20T05:34:29.411Z,86.40
2018-06-20T05:41:55.808Z,85.90
2018-06-20T05:44:25.552Z,85.90
2018-06-20T05:46:55.295Z,85.70
2018-06-20T05:49:24.725Z,85.50
2018-06-20T05:51:53.156Z,85.40
2018-06-20T05:54:23.650Z,85.30
2018-06-20T05:56:52.117Z,85.30
2018-06-20T05:59:20.469Z,85.00
2018-06-20T06:01:48.826Z,85.00
2018-06-20T06:04:17.160Z,84.90
2018-06-20T06:06:45.539Z,84.80
2018-06-20T06:09:13.880Z,84.50
2018-06-20T06:11:42.276Z,84.30
2018-06-20T06:16:38.703Z,84.10
2018-06-20T06:19:07.037Z,83.90
2018-06-20T06:21:35.379Z,83.70
2018-06-20T06:31:27.997Z,83.00
2018-06-20T06:33:56.658Z,83.00
2018-06-20T06:36:25.043Z,83.00
2018-06-20T06:41:21.496Z,83.20
2018-06-20T06:43:49.876Z,82.40
2018-06-20T06:51:14.408Z,82.10
2018-06-20T06:56:10.853Z,82.00
2018-06-20T07:01:07.295Z,81.80
2018-06-20T07:03:35.671Z,81.90
2018-06-20T07:06:04.032Z,81.60
2018-06-20T07:08:32.410Z,81.50
2018-06-20T07:11:00.820Z,81.60
2018-06-20T07:13:29.193Z,81.60
2018-06-20T07:15:57.538Z,81.50
2018-06-20T07:18:25.918Z,81.60
2018-06-20T07:20:54.256Z,81.40
2018-06-20T07:23:22.633Z,81.20
2018-06-20T07:28:19.300Z,81.20
2018-06-20T07:30:47.660Z,80.80
2018-06-20T07:35:44.228Z,80.20
2018-06-20T07:40:40.655Z,79.90
2018-06-20T07:43:09.032Z,79.90
2018-06-20T07:45:37.372Z,79.40
2018-06-20T07:48:05.732Z,79.10
2018-06-20T07:50:34.079Z,79.10
2018-06-20T07:53:02.552Z,78.80
2018-06-20T07:55:30.945Z,78.60
2018-06-20T08:00:32.712Z,78.20
2018-06-20T08:03:12.136Z,77.60
2018-06-20T08:05:45.771Z,77.90
2018-06-20T08:10:53.095Z,76.70
2018-06-20T08:13:26.740Z,76.70
2018-06-20T08:16:00.380Z,76.20
2018-06-20T08:21:02.273Z,75.90
2018-06-20T08:23:30.630Z,75.90
2018-06-20T08:25:59.009Z,75.40
2018-06-20T08:28:27.371Z,75.20
2018-06-20T08:30:55.799Z,74.20
2018-06-20T08:33:24.355Z,74.50
2018-06-20T08:38:20.807Z,73.60
2018-06-20T08:43:17.286Z,73.10
2018-06-20T08:45:45.659Z,72.70
2018-06-20T08:48:13.994Z,72.90
2018-06-20T08:50:42.364Z,72.70
2018-06-20T08:53:10.744Z,72.40
2018-06-20T08:55:39.080Z,71.60
2018-06-20T08:58:07.416Z,71.80
2018-06-20T09:00:41.168Z,71.20
2018-06-20T09:03:09.503Z,71.00
2018-06-20T09:05:43.407Z,70.80
2018-06-20T09:09:20.080Z,70.70
2018-06-20T09:11:53.807Z,70.70
2018-06-20T09:14:22.203Z,70.70
2018-06-20T09:16:56.015Z,71.10
2018-06-20T09:19:29.566Z,70.10
2018-06-20T09:21:57.925Z,70.20
2018-06-20T09:24:26.481Z,69.70
2018-06-20T09:26:54.824Z,69.00
2018-06-20T09:29:23.175Z,68.40
2018-06-20T09:31:51.564Z,67.80
2018-06-20T09:34:19.911Z,68.00
2018-06-20T09:36:48.296Z,67.30
2018-06-20T09:39:16.652Z,67.00
2018-06-20T09:44:13.112Z,66.80
2018-06-20T09:46:41.481Z,66.90
2018-06-20T09:54:06.316Z,66.20
2018-06-20T09:59:08.199Z,66.30
2018-06-20T10:04:15.570Z,66.20
2018-06-20T10:06:49.528Z,65.60
2018-06-20T10:10:25.854Z,65.50
2018-06-20T10:12:59.672Z,65.20
2018-06-20T10:15:28.011Z,64.80
2018-06-20T10:17:56.372Z,65.40
2018-06-20T10:20:26.625Z,64.40
2018-06-20T10:22:55.879Z,64.80
2018-06-20T10:25:24.235Z,64.60
2018-06-20T10:27:52.600Z,64.70
2018-06-20T10:30:20.967Z,64.80
2018-06-20T10:32:49.503Z,64.50
2018-06-20T10:35:17.841Z,63.90
2018-06-20T10:37:46.204Z,63.40
2018-06-20T10:40:14.576Z,63.10
2018-06-20T10:42:42.992Z,63.00
2018-06-20T10:45:16.707Z,62.60
2018-06-20T10:47:46.660Z,61.90
2018-06-20T10:50:15.034Z,62.00
2018-06-20T10:52:43.396Z,61.90
2018-06-20T10:55:14.103Z,61.70
2018-06-20T10:57:47.812Z,61.70
2018-06-20T11:00:21.560Z,61.00
2018-06-20T11:02:55.359Z,60.20
2018-06-20T11:05:29.015Z,59.10
2018-06-20T11:08:02.643Z,59.20
2018-06-20T11:13:06.928Z,58.80
2018-06-20T11:15:35.550Z,58.60
2018-06-20T11:18:04.171Z,59.10
2018-06-20T11:20:37.922Z,60.00
2018-06-20T11:23:06.285Z,59.30
2018-06-20T11:25:34.611Z,59.40
2018-06-20T11:30:35.735Z,58.60
2018-06-20T11:33:04.112Z,57.80
2018-06-20T11:35:32.435Z,56.60
2018-06-20T11:40:28.876Z,55.30
2018-06-20T11:42:57.280Z,55.10
2018-06-20T11:45:29.852Z,55.50
2018-06-20T11:47:58.211Z,55.40
2018-06-20T11:50:26.539Z,55.90
2018-06-20T11:53:00.652Z,55.90
2018-06-20T11:55:34.304Z,55.10
2018-06-20T11:58:08.312Z,53.90
2018-06-20T12:00:41.923Z,54.10
2018-06-20T12:03:15.751Z,53.60
2018-06-20T12:05:49.289Z,53.50
2018-06-20T12:08:23.108Z,52.90
2018-06-20T12:10:56.748Z,52.70
2018-06-20T12:16:04.100Z,53.10
2018-06-20T12:18:37.828Z,53.60
2018-06-20T12:21:11.392Z,52.70
2018-06-20T12:23:45.064Z,53.10
2018-06-20T12:28:52.271Z,52.50
2018-06-20T12:33:59.734Z,53.10
2018-06-20T12:36:33.586Z,52.70
2018-06-20T12:39:01.180Z,53.40
2018-06-20T12:42:38.448Z,52.90
2018-06-20T12:45:09.439Z,52.90
2018-06-20T12:47:48.983Z,51.90
2018-06-20T12:50:24.188Z,51.90
2018-06-20T12:52:52.748Z,52.50
2018-06-20T12:57:49.419Z,53.10
2018-06-20T13:02:46.169Z,51.30
2018-06-20T13:07:42.613Z,50.20
2018-06-20T13:10:11.008Z,49.10
2018-06-20T13:15:07.573Z,48.90
2018-06-20T13:17:35.935Z,49.00
2018-06-20T13:22:32.455Z,47.90
2018-06-20T13:25:00.840Z,47.70
2018-06-20T13:27:34.544Z,47.50
2018-06-20T13:30:09.535Z,46.90
2018-06-20T13:32:43.390Z,47.00
2018-06-20T13:35:17.044Z,46.70
2018-06-20T13:37:50.808Z,47.10
2018-06-20T13:40:24.456Z,47.10
2018-06-20T13:42:58.101Z,47.30
2018-06-20T13:45:31.899Z,47.00
2018-06-20T13:53:02.134Z,46.80
2018-06-20T13:55:30.520Z,46.70
2018-06-20T13:57:58.887Z,46.40
2018-06-20T14:00:27.467Z,45.80
2018-06-20T14:02:56.128Z,46.30
2018-06-20T14:07:52.624Z,46.00
2018-06-20T14:10:21.006Z,45.70
2018-06-20T14:12:49.392Z,46.20
2018-06-20T14:15:17.773Z,45.50
2018-06-20T14:17:46.124Z,45.00
2018-06-20T14:20:19.941Z,44.70
2018-06-20T14:22:48.295Z,44.80
2018-06-20T14:25:16.676Z,44.90
2018-06-20T14:27:45.032Z,44.40
2018-06-20T14:30:17.625Z,44.00
2018-06-20T14:35:25.089Z,43.60
2018-06-20T14:37:58.895Z,43.50
2018-06-20T14:40:32.585Z,44.20
2018-06-20T14:43:02.660Z,45.30
2018-06-20T14:48:04.733Z,46.20
2018-06-20T14:50:33.112Z,46.10
2018-06-20T14:53:01.461Z,45.50
2018-06-20T14:55:29.834Z,44.60
2018-06-20T14:57:58.183Z,44.20
2018-06-20T15:00:26.556Z,44.40
2018-06-20T15:02:54.920Z,43.80
2018-06-20T15:05:23.263Z,43.60
2018-06-20T15:07:52.430Z,43.20
2018-06-20T15:10:21.076Z,43.00
2018-06-20T15:12:49.492Z,42.50
2018-06-20T15:15:17.843Z,42.10
2018-06-20T15:20:14.341Z,41.50
2018-06-20T15:22:46.595Z,41.80
2018-06-20T15:25:15.863Z,42.20
2018-06-20T15:27:49.738Z,42.20
2018-06-20T15:30:23.400Z,41.90
2018-06-20T15:32:57.143Z,41.80
2018-06-20T15:36:29.518Z,41.40
2018-06-20T15:38:57.867Z,42.20
2018-06-20T15:41:26.230Z,42.50
2018-06-20T15:46:22.704Z,42.10
2018-06-20T15:48:51.089Z,42.30
2018-06-20T15:51:19.441Z,42.00
2018-06-20T15:53:47.820Z,41.90
2018-06-20T16:01:12.347Z,41.40
2018-06-20T16:03:40.720Z,41.20
2018-06-20T16:08:42.628Z,41.30
2018-06-20T16:11:11.020Z,41.30
2018-06-20T16:13:39.395Z,41.30
2018-06-20T16:16:10.010Z,41.00
2018-06-20T16:18:38.731Z,40.80
2018-06-20T16:21:12.582Z,40.70
2018-06-20T16:31:21.655Z,40.20
2018-06-20T16:33:50.095Z,40.10
2018-06-20T16:36:18.459Z,40.00
2018-06-20T16:38:46.828Z,39.90
2018-06-20T16:41:15.285Z,39.30
2018-06-20T16:43:43.770Z,39.40
2018-06-20T16:46:12.106Z,39.80
2018-06-20T16:48:40.476Z,40.50
2018-06-20T16:51:08.827Z,40.50
2018-06-20T16:53:37.382Z,40.30
2018-06-20T16:56:06.085Z,40.20
2018-06-20T16:58:34.459Z,40.60
2018-06-20T17:01:08.281Z,40.40
2018-06-20T17:03:36.727Z,40.20
2018-06-20T17:06:05.101Z,39.70
2018-06-20T17:08:33.476Z,39.20
2018-06-20T17:11:01.885Z,38.40
2018-06-20T17:16:09.303Z,39.20
2018-06-20T17:21:16.437Z,38.30
2018-06-20T17:23:50.131Z,38.60
2018-06-20T17:26:18.477Z,37.50
2018-06-20T17:31:14.907Z,38.20
2018-06-20T17:33:45.272Z,37.30
2018-06-20T17:36:15.615Z,37.70
2018-06-20T17:38:44.032Z,37.60
2018-06-20T17:41:12.363Z,37.00
2018-06-20T17:43:40.736Z,36.40
2018-06-20T17:46:09.100Z,36.30
2018-06-20T17:51:05.542Z,36.50
2018-06-20T17:53:33.916Z,36.70
2018-06-20T17:56:04.371Z,36.80
2018-06-20T17:58:33.276Z,36.60
2018-06-20T18:01:07.142Z,36.00
2018-06-20T18:03:35.539Z,35.80
2018-06-20T18:06:09.371Z,35.60
2018-06-20T18:08:43.060Z,35.60
2018-06-20T18:11:15.827Z,35.80
2018-06-20T18:13:49.660Z,36.80
2018-06-20T18:16:23.298Z,37.40
2018-06-20T18:18:51.684Z,38.20
2018-06-20T18:21:20.032Z,39.10
2018-06-20T18:23:48.476Z,39.90
2018-06-20T18:26:16.949Z,40.30
2018-06-20T18:28:45.344Z,40.70
2018-06-20T18:33:41.980Z,41.60
2018-06-20T18:36:10.405Z,41.50
2018-06-20T18:38:38.732Z,42.00
2018-06-20T18:41:07.178Z,42.40
2018-06-20T18:43:35.472Z,42.70
2018-06-20T18:46:03.901Z,42.50
2018-06-20T18:48:32.238Z,42.70
2018-06-20T18:51:00.608Z,42.70
2018-06-20T18:53:28.942Z,42.90
2018-06-20T18:58:30.692Z,43.50
2018-06-20T19:01:04.468Z,43.60
2018-06-20T19:03:39.132Z,43.70
2018-06-20T19:06:15.543Z,43.70
2018-06-20T19:08:51.440Z,43.80
2018-06-20T19:11:20.787Z,43.80
2018-06-20T19:13:49.260Z,44.00
2018-06-20T19:16:17.656Z,44.00
2018-06-20T19:18:46.030Z,44.10
2018-06-20T19:21:14.427Z,44.10
2018-06-20T19:23:42.769Z,44.30
2018-06-20T19:26:11.220Z,44.60
2018-06-20T19:28:39.573Z,45.00
2018-06-20T19:31:07.979Z,45.00
2018-06-20T19:33:36.359Z,44.90
2018-06-20T19:36:04.749Z,45.00
2018-06-20T19:38:33.136Z,45.10
2018-06-20T19:41:01.538Z,45.10
2018-06-20T19:45:58.076Z,45.50
2018-06-20T19:48:26.446Z,45.60
2018-06-20T19:50:54.836Z,45.80
2018-06-20T19:53:23.185Z,46.00
2018-06-20T19:55:51.640Z,46.20
2018-06-20T19:58:20.046Z,46.40
2018-06-20T20:00:48.416Z,46.80
2018-06-20T20:03:16.823Z,47.00
2018-06-20T20:05:45.192Z,47.20
2018-06-20T20:08:13.599Z,48.00
2018-06-20T20:10:41.956Z,47.50
2018-06-20T20:13:10.413Z,47.60
2018-06-20T20:15:38.782Z,47.50
2018-06-20T20:18:07.171Z,47.80
2018-06-20T20:20:35.557Z,48.00
2018-06-20T20:23:03.933Z,48.10
2018-06-20T20:25:32.346Z,48.10
2018-06-20T20:28:00.807Z,48.20
2018-06-20T20:30:29.188Z,48.30
2018-06-20T20:32:57.576Z,48.40
2018-06-20T20:35:25.953Z,48.50
2018-06-20T20:37:54.339Z,49.00
2018-06-20T20:40:22.732Z,49.30
2018-06-20T20:42:51.144Z,49.70
2018-06-20T20:45:19.499Z,50.10
2018-06-20T20:47:47.896Z,50.30
2018-06-20T20:50:16.292Z,50.80
2018-06-20T20:52:44.907Z,50.90
2018-06-20T20:55:13.386Z,51.10
2018-06-20T20:57:41.786Z,51.40
2018-06-20T21:00:10.153Z,51.50
2018-06-20T21:02:38.585Z,51.60
2018-06-20T21:05:07.001Z,51.90
2018-06-20T21:07:35.403Z,52.10
2018-06-20T21:10:03.849Z,52.30
2018-06-20T21:12:32.234Z,53.10
2018-06-20T21:15:00.604Z,52.50
2018-06-20T21:17:28.961Z,52.70
2018-06-20T21:19:57.355Z,52.90
2018-06-20T21:22:25.715Z,53.10
2018-06-20T21:24:54.096Z,53.40
2018-06-20T21:27:22.451Z,53.30
2018-06-20T21:29:50.860Z,53.80
2018-06-20T21:34:47.379Z,54.10
2018-06-20T21:37:16.623Z,54.30
2018-06-20T21:42:13.124Z,54.50
2018-06-20T21:44:41.511Z,54.60
2018-06-20T21:47:14.199Z,54.70
2018-06-20T21:49:43.404Z,55.00
2018-06-20T21:52:11.764Z,55.10
2018-06-20T21:54:40.175Z,55.30
2018-06-20T21:57:08.553Z,55.50
2018-06-20T22:02:05.051Z,55.80
2018-06-20T22:04:33.427Z,57.00
2018-06-20T22:07:01.780Z,57.20
2018-06-20T22:09:30.191Z,57.50
2018-06-20T22:11:58.597Z,57.90
2018-06-20T22:14:27.024Z,58.00
2018-06-20T22:19:23.530Z,58.20
2018-06-20T22:21:51.904Z,58.20
2018-06-20T22:29:16.528Z,58.60
2018-06-20T22:31:44.872Z,58.80
2018-06-20T22:34:13.284Z,58.90
2018-06-20T22:36:41.743Z,59.10
2018-06-20T22:39:10.855Z,59.30
2018-06-20T22:41:39.211Z,59.50
2018-06-20T22:44:07.812Z,59.70
2018-06-20T22:46:36.185Z,60.00
2018-06-20T22:49:04.626Z,60.00
2018-06-20T22:51:33.009Z,60.20
2018-06-20T22:54:01.391Z,60.40
2018-06-20T22:56:29.957Z,60.40
2018-06-20T22:58:58.440Z,60.70
2018-06-20T23:01:26.852Z,60.90
2018-06-20T23:03:55.664Z,61.10
2018-06-20T23:06:24.361Z,61.50
2018-06-20T23:08:52.750Z,61.60
2018-06-20T23:11:21.431Z,62.00
2018-06-20T23:13:50.180Z,62.10
2018-06-20T23:16:18.596Z,62.10
2018-06-20T23:18:47.011Z,62.30
2018-06-20T23:21:15.661Z,62.20
2018-06-20T23:23:44.118Z,62.50
2018-06-20T23:28:40.660Z,62.80
2018-06-20T23:31:09.120Z,62.70
2018-06-20T23:33:37.491Z,63.00
2018-06-20T23:36:05.933Z,63.10
2018-06-20T23:38:34.341Z,63.20
2018-06-20T23:41:02.756Z,63.30
2018-06-20T23:43:31.133Z,63.60
2018-06-20T23:45:59.555Z,64.30
2018-06-20T23:48:27.964Z,64.60
2018-06-20T23:50:56.392Z,64.80
2018-06-20T23:53:24.783Z,64.70
2018-06-20T23:55:53.204Z,64.90
2018-06-20T23:58:21.601Z,64.70
